ASA1248 KLAX-MROC
Flight info
| Callsign | ASA1248 |
|---|---|
| Flight time | N/A |
| Altitude | 35000 |
| Route | PNDAH2 TCATE DCT PPE UL655 LEXUX/N0459F370 UL655 AVALI UT61 VER UA552 AUR UG436 LIB BARRA4L |
| Aircraft | B38M/M-SDE1FGHILORVWXY/HB1 |
Departure
| Time | 2026-04-21 06:23 |
|---|---|
| Airport | Los Angeles International Airport (KLAX) |
Arrival
| Time | N/A |
|---|---|
| Airport | Juan Santamaría International Airport (MROC) |
| Time | Latitude | Longitude | Altitude | Speed | Heading |
|---|---|---|---|---|---|
| 2026-04-21 05:56 | 33.94178 | -118.40269 | 110 ft | 0 kts | 83° |
| 2026-04-21 06:13 | 33.94178 | -118.40270 | 128 ft | 2 kts | 83° |
| 2026-04-21 06:13 | 33.94176 | -118.40290 | 124 ft | 2 kts | 82° |
| 2026-04-21 06:13 | 33.94174 | -118.40310 | 126 ft | 2 kts | 85° |
| 2026-04-21 06:13 | 33.94178 | -118.40328 | 125 ft | 2 kts | 144° |
| 2026-04-21 06:14 | 33.94193 | -118.40335 | 124 ft | 2 kts | 172° |
| 2026-04-21 06:14 | 33.94209 | -118.40337 | 125 ft | 2 kts | 173° |
| 2026-04-21 06:14 | 33.94213 | -118.40338 | 126 ft | 0 kts | 174° |
| 2026-04-21 06:17 | 33.94209 | -118.40337 | 125 ft | 3 kts | 174° |
| 2026-04-21 06:18 | 33.94158 | -118.40331 | 124 ft | 11 kts | 174° |
| 2026-04-21 06:18 | 33.94034 | -118.40314 | 125 ft | 23 kts | 173° |
| 2026-04-21 06:18 | 33.93988 | -118.40307 | 126 ft | 0 kts | 172° |
| 2026-04-21 06:18 | 33.93987 | -118.40307 | 126 ft | 1 kts | 172° |
| 2026-04-21 06:19 | 33.93947 | -118.40294 | 126 ft | 9 kts | 142° |
| 2026-04-21 06:19 | 33.93936 | -118.40241 | 128 ft | 5 kts | 84° |
| 2026-04-21 06:19 | 33.93944 | -118.40154 | 126 ft | 18 kts | 84° |
| 2026-04-21 06:19 | 33.93962 | -118.39970 | 127 ft | 24 kts | 83° |
| 2026-04-21 06:20 | 33.93984 | -118.39770 | 125 ft | 25 kts | 83° |
| 2026-04-21 06:20 | 33.94005 | -118.39564 | 128 ft | 25 kts | 83° |
| 2026-04-21 06:20 | 33.94027 | -118.39356 | 125 ft | 25 kts | 83° |
| 2026-04-21 06:20 | 33.94048 | -118.39147 | 128 ft | 25 kts | 83° |
| 2026-04-21 06:21 | 33.93994 | -118.38976 | 127 ft | 21 kts | 120° |
| 2026-04-21 06:21 | 33.93999 | -118.38818 | 125 ft | 19 kts | 82° |
| 2026-04-21 06:21 | 33.94016 | -118.38658 | 127 ft | 20 kts | 84° |
| 2026-04-21 06:21 | 33.94035 | -118.38449 | 128 ft | 30 kts | 83° |
| 2026-04-21 06:22 | 33.94066 | -118.38179 | 128 ft | 34 kts | 82° |
| 2026-04-21 06:22 | 33.94052 | -118.38002 | 128 ft | 15 kts | 149° |
| 2026-04-21 06:22 | 33.93970 | -118.38059 | 128 ft | 15 kts | 263° |
| 2026-04-21 06:22 | 33.93966 | -118.38204 | 126 ft | 35 kts | 263° |
| 2026-04-21 06:23 | 33.93904 | -118.38787 | 128 ft | 105 kts | 262° |
| 2026-04-21 06:23 | 33.93787 | -118.39917 | 129 ft | 164 kts | 263° |
| 2026-04-21 06:23 | 33.93596 | -118.41389 | 533 ft | 186 kts | 258° |
| 2026-04-21 06:23 | 33.93376 | -118.42944 | 1385 ft | 188 kts | 264° |
| 2026-04-21 06:24 | 33.93252 | -118.44538 | 1994 ft | 198 kts | 264° |
| 2026-04-21 06:24 | 33.92792 | -118.46175 | 2347 ft | 219 kts | 237° |
| 2026-04-21 06:24 | 33.91851 | -118.47722 | 2751 ft | 239 kts | 233° |
| 2026-04-21 06:24 | 33.90812 | -118.49335 | 3474 ft | 244 kts | 230° |
| 2026-04-21 06:25 | 33.89734 | -118.50914 | 4318 ft | 250 kts | 230° |
| 2026-04-21 06:25 | 33.88588 | -118.52578 | 4909 ft | 265 kts | 229° |
| 2026-04-21 06:25 | 33.87410 | -118.54267 | 5866 ft | 262 kts | 226° |
| 2026-04-21 06:25 | 33.85927 | -118.55507 | 6721 ft | 261 kts | 199° |
| 2026-04-21 06:26 | 33.84125 | -118.55801 | 7506 ft | 264 kts | 175° |
| 2026-04-21 06:26 | 33.82305 | -118.55390 | 8289 ft | 268 kts | 171° |
| 2026-04-21 06:26 | 33.80473 | -118.54932 | 9078 ft | 270 kts | 170° |
| 2026-04-21 06:26 | 33.78649 | -118.54463 | 9867 ft | 272 kts | 170° |
| 2026-04-21 06:27 | 33.76783 | -118.53974 | 10473 ft | 280 kts | 170° |
| 2026-04-21 06:27 | 33.74809 | -118.53449 | 10748 ft | 300 kts | 170° |
| 2026-04-21 06:27 | 33.72704 | -118.52885 | 10974 ft | 320 kts | 169° |
| 2026-04-21 06:27 | 33.70563 | -118.51885 | 11168 ft | 343 kts | 150° |
| 2026-04-21 06:28 | 33.68784 | -118.49873 | 11514 ft | 363 kts | 128° |
| 2026-04-21 06:28 | 33.67572 | -118.47148 | 12045 ft | 372 kts | 120° |
| 2026-04-21 06:28 | 33.66392 | -118.44367 | 12658 ft | 376 kts | 121° |
| 2026-04-21 06:28 | 33.65194 | -118.41554 | 13251 ft | 379 kts | 121° |
| 2026-04-21 06:29 | 33.64005 | -118.38760 | 13825 ft | 383 kts | 121° |
| 2026-04-21 06:29 | 33.62788 | -118.35900 | 14342 ft | 386 kts | 121° |
| 2026-04-21 06:29 | 33.61562 | -118.33020 | 14878 ft | 388 kts | 121° |